createdAt,value
2022-10-07T00:01:47.958Z,-27.6
2022-10-07T00:03:48.842Z,-27.4
2022-10-07T00:05:50.499Z,-27.5
2022-10-07T00:07:52.159Z,-27.6
2022-10-07T00:13:57.186Z,-27.4
2022-10-07T00:15:58.231Z,-27.5
2022-10-07T00:17:59.323Z,-27.4
2022-10-07T00:20:00.479Z,-27.6
2022-10-07T00:22:02.209Z,-27.5
2022-10-07T00:24:03.425Z,-27.4
2022-10-07T00:28:06.206Z,-27.3
2022-10-07T00:30:07.454Z,-27.6
2022-10-07T00:36:14.954Z,-27.3
2022-10-07T00:40:14.704Z,-27.4
2022-10-07T00:42:16.180Z,-27.5
2022-10-07T00:44:17.166Z,-27.6
2022-10-07T00:46:19.050Z,-27.3
2022-10-07T00:48:20.457Z,-27.6
2022-10-07T00:50:22.123Z,-27.5
2022-10-07T00:52:23.265Z,-27.4
2022-10-07T00:54:24.532Z,-27.4
2022-10-07T00:56:26.042Z,-27.1
2022-10-07T00:58:27.834Z,-27.5
2022-10-07T01:00:29.734Z,-27.2
2022-10-07T01:02:31.672Z,-27.4
2022-10-07T01:04:32.919Z,-27.3
2022-10-07T01:06:34.383Z,-27.4
2022-10-07T01:08:35.863Z,-27.5
2022-10-07T01:10:37.354Z,-27.4
2022-10-07T01:12:38.596Z,-27.3
2022-10-07T01:14:39.667Z,-27.5
2022-10-07T01:16:41.405Z,-27.4
2022-10-07T01:18:43.309Z,-27.4
2022-10-07T01:22:47.040Z,-27.4
2022-10-07T01:24:48.212Z,-27.5
2022-10-07T01:26:49.365Z,-27.6
2022-10-07T01:28:51.285Z,-27.6
2022-10-07T01:30:52.336Z,-27.4
2022-10-07T01:32:54.214Z,-27.3
2022-10-07T01:36:57.324Z,-27.5
2022-10-07T01:38:59.170Z,-27.5
2022-10-07T01:43:45.874Z,-27.5
2022-10-07T01:45:47.024Z,-27.4
2022-10-07T01:47:48.278Z,-27.5
2022-10-07T01:49:49.582Z,-27.2
2022-10-07T01:53:52.262Z,-27.7
2022-10-07T01:55:53.927Z,-27.5
2022-10-07T01:57:55.502Z,-27.5
2022-10-07T01:59:57.426Z,-27.4
2022-10-07T02:01:59.157Z,-27.8
2022-10-07T02:04:00.716Z,-27.5
2022-10-07T02:06:01.940Z,-27.5
2022-10-07T02:08:03.716Z,-27.4
2022-10-07T02:10:04.911Z,-27.4
2022-10-07T02:16:10.277Z,-27.4
2022-10-07T02:18:10.241Z,-27.4
2022-10-07T02:20:11.590Z,-27.7
2022-10-07T02:22:12.750Z,-27.5
2022-10-07T02:24:14.599Z,-27.4
2022-10-07T02:26:16.241Z,-27.3
2022-10-07T02:30:19.312Z,-27.4
2022-10-07T02:32:21.295Z,-27.5
2022-10-07T02:34:23.225Z,-27.5
2022-10-07T02:36:24.780Z,-27.4
2022-10-07T02:40:28.189Z,-27.4
2022-10-07T02:42:30.069Z,-27.3
2022-10-07T02:46:32.293Z,-27.2
2022-10-07T02:48:33.608Z,-27.5
2022-10-07T02:50:35.255Z,-27.5
2022-10-07T02:52:36.867Z,-27.5
2022-10-07T02:56:39.856Z,-27.4
2022-10-07T02:58:41.490Z,-27.3
2022-10-07T03:00:43.247Z,-27.3
2022-10-07T03:02:44.697Z,-27.5
2022-10-07T03:06:47.379Z,-27.3
2022-10-07T03:08:49.127Z,-27.5
2022-10-07T03:12:52.560Z,-27.3
2022-10-07T03:14:54.071Z,-27.6
2022-10-07T03:16:55.310Z,-27.4
2022-10-07T03:18:56.844Z,-27.5
2022-10-07T03:25:01.576Z,-27.7
2022-10-07T03:27:03.179Z,-27.6
2022-10-07T03:29:04.939Z,-27.4
2022-10-07T03:31:06.156Z,-27.2
2022-10-07T03:33:07.207Z,-27.5
2022-10-07T03:35:08.736Z,-27.7
2022-10-07T03:37:10.530Z,-27.4
2022-10-07T03:39:11.579Z,-27.5
2022-10-07T03:41:13.105Z,-27.4
2022-10-07T03:43:14.113Z,-27.3
2022-10-07T03:45:15.638Z,-27.4
2022-10-07T03:47:16.936Z,-27.6
2022-10-07T03:49:18.792Z,-27.5
2022-10-07T03:51:20.172Z,-27.4
2022-10-07T03:53:21.869Z,-27.2
2022-10-07T03:55:23.346Z,-27.4
2022-10-07T03:57:24.659Z,-27.4
2022-10-07T03:59:26.417Z,-27.6
2022-10-07T04:01:27.456Z,-27.5
2022-10-07T04:03:29.089Z,-27.4
2022-10-07T04:05:30.495Z,-27.4
2022-10-07T04:07:32.351Z,-27.5
2022-10-07T04:11:34.973Z,-27.3
2022-10-07T04:13:36.819Z,-27.3
2022-10-07T04:15:37.968Z,-27.6
2022-10-07T04:17:39.735Z,-27.4
2022-10-07T04:23:43.415Z,-27.6
2022-10-07T04:25:44.997Z,-27.7
2022-10-07T04:27:51.782Z,-27.4
2022-10-07T04:29:47.404Z,-27.4
2022-10-07T04:31:48.813Z,-27.4
2022-10-07T04:33:49.994Z,-27.6
2022-10-07T04:35:51.354Z,-27.3
2022-10-07T04:37:52.981Z,-27.6
2022-10-07T04:40:00.484Z,-27.5
2022-10-07T04:41:56.085Z,-27.4
2022-10-07T04:43:58.170Z,-27.6
2022-10-07T04:45:59.283Z,-27.4
2022-10-07T04:48:01.127Z,-27.3
2022-10-07T04:50:02.757Z,-27.4
2022-10-07T04:52:04.391Z,-27.6
2022-10-07T04:54:05.499Z,-27.6
2022-10-07T04:56:07.173Z,-27.5
2022-10-07T04:58:08.586Z,-27.7
2022-10-07T05:00:10.060Z,-27.4
2022-10-07T05:02:11.336Z,-27.5
2022-10-07T05:04:12.746Z,-27.2
2022-10-07T05:06:13.768Z,-27.5
2022-10-07T05:08:15.516Z,-27.4
2022-10-07T05:10:16.543Z,-27.5
2022-10-07T05:12:18.451Z,-27.3
2022-10-07T05:22:25.653Z,-27.4
2022-10-07T05:24:26.778Z,-27.4
2022-10-07T05:26:28.129Z,-27.4
2022-10-07T05:28:30.067Z,-27.5
2022-10-07T05:30:31.080Z,-27.5
2022-10-07T05:32:32.799Z,-27.2
2022-10-07T05:36:35.870Z,-27.5
2022-10-07T05:38:37.530Z,-27.3
2022-10-07T05:40:39.458Z,-27.5
2022-10-07T05:42:41.068Z,-27.3
2022-10-07T05:44:42.147Z,-27.7
2022-10-07T05:46:43.699Z,-27.6
2022-10-07T05:48:45.239Z,-27.4
2022-10-07T05:50:46.788Z,-27.5
2022-10-07T05:52:47.789Z,-27.6
2022-10-07T05:54:49.474Z,-27.5
2022-10-07T05:56:51.084Z,-27.2
2022-10-07T05:58:52.741Z,-27.3
2022-10-07T06:02:55.752Z,-27.3
2022-10-07T06:04:56.723Z,-27.4
2022-10-07T06:06:58.398Z,-27.5
2022-10-07T06:08:59.977Z,-27.3
2022-10-07T06:11:01.562Z,-27.4
2022-10-07T06:13:03.236Z,-27.8
2022-10-07T06:15:05.009Z,-27.8
2022-10-07T06:19:08.307Z,-27.3
2022-10-07T06:21:09.401Z,-27.4
2022-10-07T06:23:10.988Z,-27.5
2022-10-07T06:25:12.235Z,-27.1
2022-10-07T06:31:16.169Z,-27.6
2022-10-07T06:33:17.424Z,-27.5
2022-10-07T06:35:18.433Z,-27.1
2022-10-07T06:37:19.746Z,-27.4
2022-10-07T06:39:20.849Z,-27.5
2022-10-07T06:41:22.087Z,-27.5
2022-10-07T06:43:23.395Z,-27.4
2022-10-07T06:45:24.913Z,-27.3
2022-10-07T06:47:26.133Z,-27.2
2022-10-07T06:49:27.733Z,-27.4
2022-10-07T06:51:29.186Z,-27.5
2022-10-07T06:53:31.005Z,-27.7
2022-10-07T06:55:32.082Z,-27.4
2022-10-07T06:57:45.174Z,-27.5
2022-10-07T06:59:34.749Z,-27.2
2022-10-07T07:01:36.152Z,-27.5
2022-10-07T07:03:37.774Z,-27.5
2022-10-07T07:05:40.166Z,-27.5
2022-10-07T07:07:40.366Z,-27.3
2022-10-07T07:09:41.913Z,-27.1
2022-10-07T07:11:43.013Z,-25.3
2022-10-07T07:13:45.367Z,-24.4
2022-10-07T07:15:45.726Z,-11.5
2022-10-07T07:17:47.466Z,-6.2
2022-10-07T07:19:48.360Z,-4.1
2022-10-07T07:23:51.105Z,-1.7
2022-10-07T07:25:52.297Z,-6.5
2022-10-07T07:27:57.539Z,-7.3
2022-10-07T07:29:54.602Z,-8
2022-10-07T07:33:57.308Z,1.4
2022-10-07T07:35:59.019Z,3.3
2022-10-07T07:38:00.653Z,3
2022-10-07T07:40:01.678Z,5.1
2022-10-07T07:44:04.281Z,19.4
2022-10-07T07:46:05.430Z,21.7
2022-10-07T07:48:07.225Z,20
2022-10-07T07:50:08.339Z,15.6
2022-10-07T07:54:10.763Z,16.2
2022-10-07T07:56:11.834Z,17.79
2022-10-07T08:00:14.360Z,3.4
2022-10-07T08:02:15.942Z,-2.4
2022-10-07T08:04:17.481Z,-3.6
2022-10-07T08:06:18.646Z,-2.3
2022-10-07T08:12:22.912Z,4.4
2022-10-07T08:14:24.122Z,5.7
2022-10-07T08:16:25.531Z,9.89
2022-10-07T08:18:27.358Z,9
2022-10-07T08:20:29.155Z,10.4
2022-10-07T08:22:30.647Z,14.7
2022-10-07T08:24:31.737Z,18.79
2022-10-07T08:25:15.517Z,20.7
2022-10-07T08:27:16.430Z,24.9
2022-10-07T08:29:18.320Z,28
2022-10-07T08:31:20.094Z,30.6
2022-10-07T08:33:21.391Z,32.8
2022-10-07T08:35:22.776Z,73.6
2022-10-07T08:37:24.641Z,72.3
2022-10-07T08:39:26.386Z,71.5
2022-10-07T08:41:27.775Z,70.5
2022-10-07T08:43:28.776Z,69.8
2022-10-07T08:45:30.410Z,68.6
2022-10-07T08:47:31.952Z,68
2022-10-07T08:49:33.155Z,66.8
2022-10-07T08:51:34.191Z,65.5
2022-10-07T08:53:36.008Z,64.19
2022-10-07T08:55:37.832Z,63.3
2022-10-07T08:57:39.425Z,59
2022-10-07T08:59:41.061Z,56.9
2022-10-07T09:01:42.775Z,57.9
2022-10-07T09:05:46.271Z,53.8
2022-10-07T09:07:48.234Z,55.8
2022-10-07T09:09:48.815Z,55.4
2022-10-07T09:11:50.115Z,52.9
2022-10-07T09:13:51.396Z,47.7
2022-10-07T09:15:52.466Z,46.4
2022-10-07T09:17:54.192Z,49.4
2022-10-07T09:19:56.584Z,47.2
2022-10-07T09:21:57.975Z,46.2
2022-10-07T09:23:59.754Z,39.8
2022-10-07T09:26:01.311Z,43.1
2022-10-07T09:28:03.024Z,37.59
2022-10-07T09:30:04.401Z,36.7
2022-10-07T09:32:06.178Z,34.9
2022-10-07T09:34:07.038Z,35
2022-10-07T09:36:08.768Z,36.9
2022-10-07T09:38:10.417Z,35.3
2022-10-07T09:40:11.428Z,34
2022-10-07T09:42:13.069Z,32.9
2022-10-07T09:44:14.590Z,31.9
2022-10-07T09:46:16.085Z,30.7
2022-10-07T09:48:17.460Z,26.5
2022-10-07T09:50:18.822Z,24.2
2022-10-07T09:52:20.464Z,27.3
2022-10-07T09:54:21.776Z,26.6
2022-10-07T09:56:23.611Z,25.8
2022-10-07T09:58:24.798Z,23.8
2022-10-07T10:00:26.000Z,23.6
2022-10-07T10:02:28.517Z,22.7
2022-10-07T10:04:29.708Z,18.5
2022-10-07T10:06:30.821Z,20.4
2022-10-07T10:08:32.301Z,19.79
2022-10-07T10:10:34.269Z,14.4
2022-10-07T10:12:36.182Z,17.9
2022-10-07T10:14:36.636Z,16.2
2022-10-07T10:16:38.268Z,15.5
2022-10-07T10:18:39.608Z,16.6
2022-10-07T10:20:41.018Z,8.5
2022-10-07T10:22:41.954Z,14.3
2022-10-07T10:24:43.749Z,12.2
2022-10-07T10:26:45.123Z,-27.2
2022-10-07T10:30:47.678Z,-27.6
2022-10-07T10:32:49.084Z,-27.7
2022-10-07T10:34:50.606Z,-27.4
2022-10-07T10:36:51.856Z,-27.5
2022-10-07T10:38:52.795Z,-27.8
2022-10-07T10:40:54.184Z,-27.6
2022-10-07T10:42:55.246Z,-27.6
2022-10-07T10:44:56.787Z,-27.4
2022-10-07T10:46:57.957Z,-27.7
2022-10-07T10:48:59.521Z,-27.4
2022-10-07T10:51:01.126Z,-27.5
2022-10-07T10:53:02.595Z,-27.7
2022-10-07T10:55:03.450Z,-27.6
2022-10-07T10:57:04.604Z,-27.8
2022-10-07T11:01:07.383Z,-27.6
2022-10-07T11:03:08.802Z,-27.6
2022-10-07T11:05:10.411Z,-27.6
2022-10-07T11:07:11.248Z,-27.9
2022-10-07T11:09:12.832Z,-27.6
2022-10-07T11:11:13.754Z,-27.7
2022-10-07T11:13:15.330Z,-27.8
2022-10-07T11:17:17.978Z,-27.7
2022-10-07T11:19:19.002Z,-27.6
2022-10-07T11:21:21.368Z,-27.6
2022-10-07T11:23:22.987Z,-27.8
2022-10-07T11:25:24.514Z,-27.9
2022-10-07T11:27:26.128Z,-27.7
2022-10-07T11:29:27.082Z,-27.8
2022-10-07T11:31:28.171Z,-27.8
2022-10-07T11:33:29.717Z,-27.9
2022-10-07T11:35:31.073Z,-28.1
2022-10-07T11:37:32.463Z,-27.8
2022-10-07T11:39:33.941Z,-27.8
2022-10-07T11:41:34.819Z,-28.1
2022-10-07T11:43:36.141Z,-28.2
2022-10-07T11:45:37.724Z,-27.8
2022-10-07T11:47:39.081Z,-28
2022-10-07T11:49:40.245Z,-27.7
2022-10-07T11:51:41.933Z,-28.1
2022-10-07T11:53:43.664Z,-27.5
2022-10-07T11:55:45.211Z,-27.8
2022-10-07T11:59:48.045Z,-27.9
2022-10-07T12:01:49.236Z,-27.6
2022-10-07T12:03:50.022Z,-27.7
2022-10-07T12:05:51.380Z,-27.6
2022-10-07T12:07:53.130Z,-27.6
2022-10-07T12:09:54.698Z,-27.6
2022-10-07T12:11:55.723Z,-27.4
2022-10-07T12:13:56.577Z,-27.7
2022-10-07T12:15:58.342Z,-27.2
2022-10-07T12:17:59.630Z,-27.8
2022-10-07T12:20:01.382Z,-27.7
2022-10-07T12:22:03.071Z,-27.5
2022-10-07T12:26:04.987Z,-27.9
2022-10-07T12:28:06.556Z,-27.5
2022-10-07T12:30:07.829Z,-27.8
2022-10-07T12:32:09.259Z,-27.6
2022-10-07T12:34:10.861Z,-27.6
2022-10-07T12:36:11.971Z,-27.8
2022-10-07T12:38:13.116Z,-28
2022-10-07T12:40:14.854Z,-27.9
2022-10-07T12:42:16.447Z,-28
2022-10-07T12:44:17.667Z,-27.7
2022-10-07T12:46:18.866Z,-28.2
2022-10-07T12:48:19.540Z,-28
2022-10-07T12:50:21.140Z,-27.8
2022-10-07T12:52:22.450Z,-27.8
2022-10-07T12:54:24.087Z,-27.7
2022-10-07T12:56:24.897Z,-28
2022-10-07T12:58:26.114Z,-28.2
2022-10-07T13:00:26.966Z,-27.9
2022-10-07T13:02:27.953Z,-27.6
2022-10-07T13:04:29.580Z,-27.7
2022-10-07T13:06:31.164Z,-27.9
2022-10-07T13:08:32.732Z,-27.8
2022-10-07T13:10:33.955Z,-28.2
2022-10-07T13:12:35.318Z,-27.8
2022-10-07T13:14:36.368Z,-27.8
2022-10-07T13:16:37.849Z,-27.8
2022-10-07T13:18:39.385Z,-28
2022-10-07T13:20:41.024Z,-27.8
2022-10-07T13:22:42.163Z,-28.1
2022-10-07T13:24:43.571Z,-28
2022-10-07T13:26:45.021Z,-27.7
2022-10-07T13:28:55.239Z,-27.9
2022-10-07T13:30:47.552Z,-27.9
2022-10-07T13:36:51.439Z,-27.8
2022-10-07T13:38:53.187Z,-27.5
2022-10-07T13:40:54.709Z,-27.5
2022-10-07T13:42:56.115Z,-28
2022-10-07T13:44:57.319Z,-28
2022-10-07T13:46:58.482Z,-28.2
2022-10-07T13:51:01.063Z,-28.2
2022-10-07T13:53:01.911Z,-28
2022-10-07T13:55:03.672Z,-28
2022-10-07T13:57:07.808Z,-28.2
2022-10-07T13:59:06.162Z,-27.9
2022-10-07T14:01:07.963Z,-28.3
2022-10-07T14:03:08.754Z,-28.3
2022-10-07T14:05:09.670Z,-27.8
2022-10-07T14:07:11.222Z,-28
2022-10-07T14:09:12.809Z,-27.9
2022-10-07T14:11:13.943Z,-27.9
2022-10-07T14:13:14.873Z,-27.9
2022-10-07T14:15:16.302Z,-27.9
2022-10-07T14:17:17.209Z,-27.9
2022-10-07T14:19:20.803Z,-28
2022-10-07T14:21:19.642Z,-28
2022-10-07T14:23:20.778Z,-28
2022-10-07T14:25:21.730Z,-27.8
2022-10-07T14:29:24.356Z,-27.9
2022-10-07T14:31:25.977Z,-27.9
2022-10-07T14:33:27.241Z,-27.8
2022-10-07T14:35:28.908Z,-28.1
2022-10-07T14:39:31.204Z,-28
2022-10-07T14:41:32.638Z,-28.3
2022-10-07T14:43:34.205Z,-27.8
2022-10-07T14:45:35.604Z,-28
2022-10-07T14:47:36.876Z,-27.8
2022-10-07T14:49:38.525Z,1.7
2022-10-07T14:51:39.791Z,-7.1
2022-10-07T14:53:40.958Z,-8.89
2022-10-07T14:55:42.140Z,-14.4
2022-10-07T14:57:43.067Z,-18.7
2022-10-07T15:01:46.161Z,-21
2022-10-07T15:03:47.097Z,-20.1
2022-10-07T15:05:48.113Z,-0.8
2022-10-07T15:07:49.763Z,-10.5
2022-10-07T15:09:50.619Z,2.3
2022-10-07T15:12:35.505Z,61.5
2022-10-07T15:14:36.435Z,-15.3
2022-10-07T15:16:38.268Z,-19
2022-10-07T15:18:43.122Z,-23.4
2022-10-07T15:20:41.180Z,-24.2
2022-10-07T15:22:42.386Z,-16.1
2022-10-07T15:24:43.996Z,-13.5
2022-10-07T15:26:45.453Z,-23.1
2022-10-07T15:28:46.919Z,-7.6
2022-10-07T15:30:47.774Z,61.8
2022-10-07T15:32:49.224Z,57.7
2022-10-07T15:34:50.221Z,56.1
2022-10-07T15:36:51.290Z,54.3
2022-10-07T15:38:53.079Z,52.1
2022-10-07T15:40:54.311Z,50.5
2022-10-07T15:42:55.967Z,48.5
2022-10-07T15:44:56.787Z,46.6
2022-10-07T15:46:58.182Z,44.9
2022-10-07T15:48:59.181Z,43
2022-10-07T15:51:00.703Z,39.9
2022-10-07T15:57:04.182Z,-27.8
2022-10-07T15:59:05.745Z,-27.9
2022-10-07T16:01:06.554Z,-28.2
2022-10-07T16:03:08.146Z,-28
2022-10-07T16:05:09.903Z,-28
2022-10-07T16:07:10.875Z,-28
2022-10-07T16:11:13.847Z,-28.2
2022-10-07T16:13:15.212Z,-28.3
2022-10-07T16:15:16.133Z,-28.2
2022-10-07T16:17:17.175Z,-28.4
2022-10-07T16:23:21.504Z,-28.7
2022-10-07T16:25:22.929Z,-28.2
2022-10-07T16:27:24.526Z,-28.3
2022-10-07T16:29:25.580Z,-28.4
2022-10-07T16:31:26.953Z,-28.3
2022-10-07T16:33:28.479Z,-28.3
2022-10-07T16:39:32.743Z,-28.3
2022-10-07T16:41:34.569Z,-28.2
2022-10-07T16:43:35.613Z,-28
2022-10-07T16:45:36.827Z,-27.9
2022-10-07T16:47:38.453Z,-27.6
2022-10-07T16:49:39.967Z,-28.2
2022-10-07T16:51:40.874Z,-27.8
2022-10-07T16:53:41.922Z,-27.9
2022-10-07T16:55:43.200Z,-28.2
2022-10-07T16:57:44.974Z,-27.6
2022-10-07T16:59:45.761Z,-27.7
2022-10-07T17:01:47.660Z,-27.8
2022-10-07T17:03:49.336Z,-27.7
2022-10-07T17:05:50.328Z,-27.7
2022-10-07T17:07:51.787Z,-28
2022-10-07T17:09:53.296Z,-27.7
2022-10-07T17:11:54.620Z,-27.8
2022-10-07T17:13:55.922Z,-28
2022-10-07T17:15:56.830Z,-27.5
2022-10-07T17:17:58.061Z,-27.7
2022-10-07T17:19:59.005Z,-27.8
2022-10-07T17:22:00.500Z,-27.8
2022-10-07T17:24:02.073Z,-27.7
2022-10-07T17:26:03.376Z,-27.8
2022-10-07T17:28:04.959Z,-27.9
2022-10-07T17:30:06.692Z,-27.8
2022-10-07T17:32:08.189Z,-27.8
2022-10-07T17:38:12.237Z,-27.8
2022-10-07T17:40:13.849Z,-27.7
2022-10-07T17:42:15.270Z,-28.2
2022-10-07T17:44:16.575Z,-27.8
2022-10-07T17:46:18.206Z,-27.5
2022-10-07T17:48:19.061Z,-27.7
2022-10-07T17:52:26.626Z,-27.8
2022-10-07T17:54:23.890Z,-27.8
2022-10-07T17:56:25.008Z,-27.7
2022-10-07T17:58:26.390Z,-27.5
2022-10-07T18:00:27.349Z,-27.8
2022-10-07T18:04:30.440Z,-27.5
2022-10-07T18:06:31.370Z,-27.6
2022-10-07T18:08:32.364Z,-27.7
2022-10-07T18:10:34.033Z,-27.6
2022-10-07T18:12:35.272Z,-27.8
2022-10-07T18:14:36.565Z,-27.8
2022-10-07T18:16:37.774Z,-27.7
2022-10-07T18:18:39.615Z,-27.8
2022-10-07T18:20:41.020Z,-27.8
2022-10-07T18:22:42.427Z,-27.7
2022-10-07T18:24:44.140Z,-27.7
2022-10-07T18:26:45.035Z,-28
2022-10-07T18:28:46.274Z,-27.4
2022-10-07T18:30:47.300Z,-27.7
2022-10-07T18:32:48.843Z,-27.6
2022-10-07T18:34:49.864Z,-27.7
2022-10-07T18:36:56.112Z,-27.5
2022-10-07T18:38:52.874Z,-27.6
2022-10-07T18:40:54.164Z,-27.5
2022-10-07T18:42:55.787Z,-27.5
2022-10-07T18:46:59.151Z,-27.5
2022-10-07T18:49:00.273Z,-27.8
2022-10-07T18:51:01.593Z,-27.8
2022-10-07T18:53:02.963Z,-27.6
2022-10-07T18:55:04.011Z,-27.5
2022-10-07T18:57:05.783Z,-27.6
2022-10-07T19:03:10.070Z,-27.7
2022-10-07T19:05:11.236Z,-27.8
2022-10-07T19:07:12.951Z,-27.6
2022-10-07T19:09:14.428Z,-27.8
2022-10-07T19:11:24.262Z,-27.8
2022-10-07T19:13:20.626Z,-27.4
2022-10-07T19:15:18.569Z,-27.9
2022-10-07T19:17:19.636Z,-28
2022-10-07T19:19:20.579Z,-27.6
2022-10-07T19:21:22.375Z,-27.8
2022-10-07T19:23:24.290Z,-27.8
2022-10-07T19:25:25.855Z,-27.5
2022-10-07T19:27:27.119Z,-27.9
2022-10-07T19:29:28.106Z,-27.7
2022-10-07T19:31:29.987Z,-27.8
2022-10-07T19:33:30.945Z,-27.6
2022-10-07T19:35:31.882Z,-28
2022-10-07T19:39:34.571Z,-27.5
2022-10-07T19:43:37.433Z,-27.8
2022-10-07T19:45:38.806Z,-27.7
2022-10-07T19:49:41.852Z,-28
2022-10-07T19:51:43.536Z,-27.7
2022-10-07T19:53:47.177Z,-27.8
2022-10-07T19:55:46.153Z,-27.8
2022-10-07T20:01:50.942Z,-27.7
2022-10-07T20:03:52.068Z,-27.7
2022-10-07T20:05:53.156Z,-27.6
2022-10-07T20:09:56.019Z,-28
2022-10-07T20:11:57.683Z,-27.7
2022-10-07T20:16:02.311Z,-27.8
2022-10-07T20:18:01.906Z,-27.5
2022-10-07T20:20:03.784Z,-28
2022-10-07T20:22:05.024Z,-27.6
2022-10-07T20:28:08.747Z,-27.8
2022-10-07T20:30:12.845Z,-27.9
2022-10-07T20:32:11.506Z,-27.7
2022-10-07T20:34:12.352Z,-27.7
2022-10-07T20:36:13.443Z,-27.8
2022-10-07T20:38:14.502Z,-27.9
2022-10-07T20:40:16.112Z,-27.8
2022-10-07T20:42:17.692Z,-27.4
2022-10-07T20:44:18.699Z,-27.7
2022-10-07T20:46:20.548Z,-27.7
2022-10-07T20:48:21.570Z,-27.7
2022-10-07T20:50:22.868Z,-27.8
2022-10-07T20:52:24.431Z,-27.7
2022-10-07T20:54:25.380Z,-27.9
2022-10-07T20:56:26.404Z,-27.9
2022-10-07T20:58:28.098Z,-27.8
2022-10-07T21:00:29.880Z,-27.4
2022-10-07T21:02:31.286Z,-27.7
2022-10-07T21:04:32.511Z,-27.8
2022-10-07T21:06:33.929Z,-27.7
2022-10-07T21:08:35.574Z,-27.9
2022-10-07T21:12:38.668Z,-27.9
2022-10-07T21:14:40.030Z,-28
2022-10-07T21:16:41.347Z,-27.8
2022-10-07T21:20:44.312Z,-27.8
2022-10-07T21:22:45.915Z,-27.7
2022-10-07T21:24:46.862Z,-27.7
2022-10-07T21:26:48.008Z,-27.7
2022-10-07T21:28:49.162Z,-27.7
2022-10-07T21:30:50.222Z,-27.9
2022-10-07T21:32:51.739Z,-27.8
2022-10-07T21:34:53.484Z,-27.8
2022-10-07T21:36:55.050Z,-27.9
2022-10-07T21:40:58.016Z,-27.8
2022-10-07T21:42:59.031Z,-27.6
2022-10-07T21:45:00.242Z,-27.9
2022-10-07T21:47:01.494Z,-27.7
2022-10-07T21:49:02.836Z,-27.8
2022-10-07T21:51:07.173Z,-27.7
2022-10-07T21:53:06.492Z,-27.9
2022-10-07T21:55:08.388Z,-28.1
2022-10-07T21:58:17.710Z,-27.6
2022-10-07T22:00:19.431Z,-27.6
2022-10-07T22:02:21.162Z,-27.8
2022-10-07T22:04:22.709Z,-27.8
2022-10-07T22:06:23.641Z,-27.7
2022-10-07T22:08:24.905Z,-27.7
2022-10-07T22:10:26.163Z,-27.7
2022-10-07T22:12:27.702Z,-27.8
2022-10-07T22:14:29.546Z,-27.8
2022-10-07T22:18:32.124Z,-27.8
2022-10-07T22:20:33.337Z,-27.8
2022-10-07T22:22:34.302Z,-27.7
2022-10-07T22:24:35.275Z,-27.9
2022-10-07T22:30:39.420Z,-27.9
2022-10-07T22:32:40.432Z,-27.8
2022-10-07T22:34:41.857Z,-27.6
2022-10-07T22:36:43.314Z,-27.9
2022-10-07T22:38:44.868Z,-27.5
2022-10-07T22:40:46.047Z,-27.7
2022-10-07T22:42:47.347Z,-27.7
2022-10-07T22:44:48.419Z,-27.7
2022-10-07T22:46:50.287Z,-27.6
2022-10-07T22:48:52.110Z,-27.5
2022-10-07T22:50:53.187Z,-27.7
2022-10-07T22:52:54.142Z,-27.7
2022-10-07T22:54:55.793Z,-27.8
2022-10-07T22:56:57.477Z,-27.8
2022-10-07T22:58:59.284Z,-27.7
2022-10-07T23:01:00.381Z,-27.7
2022-10-07T23:03:01.765Z,-28.2
2022-10-07T23:05:02.784Z,-27.7
2022-10-07T23:07:04.308Z,-27.9
2022-10-07T23:09:05.344Z,-27.6
2022-10-07T23:11:06.602Z,-27.8
2022-10-07T23:13:08.163Z,-27.8
2022-10-07T23:15:09.090Z,-28
2022-10-07T23:17:10.310Z,-27.9
2022-10-07T23:19:11.500Z,-27.7
2022-10-07T23:21:13.373Z,-27.7
2022-10-07T23:23:15.190Z,-27.9
2022-10-07T23:29:19.351Z,-27.7
2022-10-07T23:31:21.287Z,-27.7
2022-10-07T23:33:22.163Z,-27.8
2022-10-07T23:37:25.091Z,-27.9
2022-10-07T23:39:26.774Z,-27.6
2022-10-07T23:41:27.900Z,-27.7
2022-10-07T23:43:29.284Z,-27.8
2022-10-07T23:45:30.396Z,-27.8
2022-10-07T23:47:31.640Z,-27.6
2022-10-07T23:49:32.625Z,-27.7
2022-10-07T23:51:34.466Z,-27.6
2022-10-07T23:55:37.504Z,-27.6
2022-10-07T23:59:40.593Z,-27.7
